createdAt,value
2023-03-11T00:00:38.339Z,1.29
2023-03-11T00:03:09.315Z,1.34
2023-03-11T00:05:39.115Z,1.26
2023-03-11T00:08:08.361Z,1.27
2023-03-11T00:10:38.452Z,1.27
2023-03-11T00:13:07.700Z,1.25
2023-03-11T00:15:35.643Z,1.36
2023-03-11T00:18:04.004Z,1.45
2023-03-11T00:20:34.588Z,1.42
2023-03-11T00:23:03.330Z,1.42
2023-03-11T00:25:32.660Z,1.34
2023-03-11T00:28:00.980Z,1.40
2023-03-11T00:30:29.555Z,1.28
2023-03-11T00:32:59.143Z,1.28
2023-03-11T00:35:29.279Z,1.20
2023-03-11T00:37:59.884Z,1.15
2023-03-11T00:40:30.794Z,1.10
2023-03-11T00:42:58.856Z,1.13
2023-03-11T00:45:27.606Z,1.13
2023-03-11T00:47:55.786Z,1.19
2023-03-11T00:50:25.755Z,0.97
2023-03-11T00:52:54.190Z,1.03
2023-03-11T00:55:25.500Z,0.95
2023-03-11T00:57:54.320Z,1.06
2023-03-11T01:00:24.360Z,1.02
2023-03-11T01:02:52.805Z,1.00
2023-03-11T01:05:21.747Z,0.84
2023-03-11T01:07:49.562Z,0.83
2023-03-11T01:10:17.859Z,0.90
2023-03-11T01:12:46.912Z,0.89
2023-03-11T01:15:19.619Z,0.91
2023-03-11T01:17:47.327Z,1.02
2023-03-11T01:20:16.002Z,0.96
2023-03-11T01:22:43.768Z,0.91
2023-03-11T01:25:14.850Z,0.73
2023-03-11T01:27:43.124Z,0.66
2023-03-11T01:30:16.336Z,0.83
2023-03-11T01:32:44.786Z,0.86
2023-03-11T01:35:14.146Z,0.85
2023-03-11T01:37:42.000Z,0.82
2023-03-11T01:40:16.012Z,0.81
2023-03-11T01:42:43.720Z,0.93
2023-03-11T01:45:34.008Z,0.89
2023-03-11T01:48:01.747Z,0.82
2023-03-11T01:50:33.851Z,0.71
2023-03-11T01:53:01.772Z,0.79
2023-03-11T01:55:30.305Z,0.85
2023-03-11T01:57:58.161Z,0.74
2023-03-11T02:00:27.348Z,0.76
2023-03-11T02:02:56.670Z,0.86
2023-03-11T02:05:26.018Z,0.84
2023-03-11T02:07:55.952Z,0.82
2023-03-11T02:10:23.895Z,0.80
2023-03-11T02:12:52.515Z,0.80
2023-03-11T02:15:20.228Z,0.79
2023-03-11T02:17:49.249Z,0.84
2023-03-11T02:20:28.609Z,0.76
2023-03-11T02:22:58.088Z,0.78
2023-03-11T02:25:35.633Z,0.83
2023-03-11T02:28:08.670Z,0.83
2023-03-11T02:30:37.610Z,0.69
2023-03-11T02:33:05.455Z,0.71
2023-03-11T02:35:33.216Z,0.77
2023-03-11T02:38:00.939Z,0.84
2023-03-11T02:40:45.048Z,0.86
2023-03-11T02:43:16.907Z,0.81
2023-03-11T02:45:46.563Z,0.68
2023-03-11T02:48:15.723Z,0.70
2023-03-11T02:50:44.275Z,0.73
2023-03-11T02:53:11.951Z,0.79
2023-03-11T02:55:39.674Z,0.74
2023-03-11T02:58:07.385Z,0.87
2023-03-11T03:00:36.482Z,0.85
2023-03-11T03:03:04.166Z,0.69
2023-03-11T03:05:32.005Z,0.70
2023-03-11T03:07:59.771Z,0.81
2023-03-11T03:10:27.616Z,0.84
2023-03-11T03:12:55.359Z,0.88
2023-03-11T03:15:23.106Z,0.77
2023-03-11T03:17:52.240Z,0.91
2023-03-11T03:20:22.650Z,0.79
2023-03-11T03:22:51.284Z,0.79
2023-03-11T03:25:19.260Z,0.70
2023-03-11T03:27:47.104Z,0.74
2023-03-11T03:30:15.188Z,0.73
2023-03-11T03:32:42.944Z,0.68
2023-03-11T03:35:12.251Z,0.79
2023-03-11T03:37:40.249Z,0.77
2023-03-11T03:40:09.626Z,0.74
2023-03-11T03:42:38.271Z,0.79
2023-03-11T03:45:08.216Z,0.73
2023-03-11T03:47:37.168Z,0.70
2023-03-11T03:50:05.427Z,0.64
2023-03-11T03:52:35.993Z,0.59
2023-03-11T03:55:04.223Z,0.61
2023-03-11T03:57:31.886Z,0.68
2023-03-11T03:59:59.531Z,0.71
2023-03-11T04:02:27.345Z,0.71
2023-03-11T04:04:55.157Z,0.65
2023-03-11T04:07:22.811Z,0.69
2023-03-11T04:09:51.837Z,0.62
2023-03-11T04:12:19.529Z,0.62
2023-03-11T04:14:47.228Z,0.61
2023-03-11T04:17:17.697Z,0.63
2023-03-11T04:19:45.620Z,0.57
2023-03-11T04:22:13.861Z,0.64
2023-03-11T04:24:41.622Z,0.61
2023-03-11T04:27:10.706Z,0.66
2023-03-11T04:29:38.588Z,0.56
2023-03-11T04:32:07.007Z,0.63
2023-03-11T04:34:34.836Z,0.61
2023-03-11T04:37:02.577Z,0.51
2023-03-11T04:39:30.244Z,0.60
2023-03-11T04:41:58.093Z,0.61
2023-03-11T04:44:27.154Z,0.55
2023-03-11T04:46:54.809Z,0.67
2023-03-11T04:49:22.480Z,0.71
2023-03-11T04:51:50.113Z,0.75
2023-03-11T04:54:17.743Z,0.65
2023-03-11T04:56:45.431Z,0.65
2023-03-11T04:59:13.104Z,0.56
2023-03-11T05:01:42.155Z,0.56
2023-03-11T05:04:11.781Z,0.62
2023-03-11T05:06:39.630Z,0.54
2023-03-11T05:09:07.479Z,0.49
2023-03-11T05:11:35.170Z,0.62
2023-03-11T05:14:02.843Z,0.62
2023-03-11T05:16:30.474Z,0.65
2023-03-11T05:18:59.482Z,0.65
2023-03-11T05:21:27.174Z,0.58
2023-03-11T05:23:54.830Z,0.56
2023-03-11T05:26:22.535Z,0.58
2023-03-11T05:28:50.163Z,0.75
2023-03-11T05:31:17.937Z,0.71
2023-03-11T05:33:45.609Z,0.63
2023-03-11T05:36:14.645Z,0.68
2023-03-11T05:38:42.357Z,0.62
2023-03-11T05:41:10.038Z,0.62
2023-03-11T05:43:37.681Z,0.52
2023-03-11T05:46:05.844Z,0.51
2023-03-11T05:48:33.578Z,0.53
2023-03-11T05:51:01.188Z,0.62
2023-03-11T05:53:30.221Z,0.73
2023-03-11T05:55:58.842Z,0.60
2023-03-11T05:58:27.017Z,0.54
2023-03-11T06:00:54.825Z,0.48
2023-03-11T06:03:23.075Z,0.54
2023-03-11T06:05:52.723Z,0.56
2023-03-11T06:08:21.978Z,0.59
2023-03-11T06:10:51.047Z,0.57
2023-03-11T06:13:18.723Z,0.54
2023-03-11T06:15:46.791Z,0.56
2023-03-11T06:18:14.452Z,0.62
2023-03-11T06:20:42.150Z,0.61
2023-03-11T06:23:10.390Z,0.63
2023-03-11T06:25:38.014Z,0.70
2023-03-11T06:28:07.162Z,0.60
2023-03-11T06:30:34.773Z,0.62
2023-03-11T06:33:02.463Z,0.60
2023-03-11T06:35:30.121Z,0.56
2023-03-11T06:37:57.805Z,0.69
2023-03-11T06:40:25.513Z,0.70
2023-03-11T06:42:53.282Z,0.73
2023-03-11T06:45:22.338Z,0.67
2023-03-11T06:47:49.975Z,0.67
2023-03-11T06:50:17.915Z,0.70
2023-03-11T06:52:45.595Z,0.54
2023-03-11T06:55:13.214Z,0.51
2023-03-11T06:57:40.891Z,0.55
2023-03-11T07:00:12.190Z,0.53
2023-03-11T07:02:41.205Z,0.54
2023-03-11T07:05:09.617Z,0.56
2023-03-11T07:07:37.318Z,0.54
2023-03-11T07:10:05.628Z,0.49
2023-03-11T07:12:33.335Z,0.59
2023-03-11T07:15:01.222Z,0.67
2023-03-11T07:17:29.092Z,0.71
2023-03-11T07:19:58.210Z,0.55
2023-03-11T07:22:26.004Z,0.66
2023-03-11T07:24:53.896Z,0.69
2023-03-11T07:27:22.386Z,0.65
2023-03-11T07:29:49.997Z,0.65
2023-03-11T07:32:17.986Z,0.63
2023-03-11T07:34:45.714Z,0.67
2023-03-11T07:37:15.417Z,0.68
2023-03-11T07:39:43.188Z,0.62
2023-03-11T07:42:10.916Z,0.70
2023-03-11T07:44:38.662Z,0.62
2023-03-11T07:47:06.907Z,0.64
2023-03-11T07:49:34.735Z,0.66
2023-03-11T07:52:02.449Z,0.60
2023-03-11T07:54:31.463Z,0.68
2023-03-11T07:56:59.156Z,0.72
2023-03-11T07:59:26.903Z,0.71
2023-03-11T08:01:54.528Z,0.77
2023-03-11T08:04:22.212Z,0.78
2023-03-11T08:06:49.885Z,0.83
2023-03-11T08:09:17.807Z,0.94
2023-03-11T08:11:48.769Z,0.99
2023-03-11T08:14:17.346Z,0.98
2023-03-11T08:16:45.000Z,0.96
2023-03-11T08:19:13.560Z,0.88
2023-03-11T08:21:41.470Z,0.93
2023-03-11T08:24:11.742Z,0.90
2023-03-11T08:26:39.408Z,1.05
2023-03-11T08:29:08.578Z,1.11
2023-03-11T08:31:36.317Z,1.31
2023-03-11T08:34:06.143Z,1.17
2023-03-11T08:36:34.688Z,1.16
2023-03-11T08:39:02.913Z,1.21
2023-03-11T08:41:30.660Z,1.26
2023-03-11T08:43:58.372Z,1.34
2023-03-11T08:46:29.312Z,1.45
2023-03-11T08:49:00.797Z,1.45
2023-03-11T08:51:28.838Z,1.46
2023-03-11T08:53:56.549Z,1.49
2023-03-11T08:56:24.429Z,1.51
2023-03-11T08:58:52.623Z,1.40
2023-03-11T09:01:21.135Z,1.44
2023-03-11T09:03:50.367Z,1.42
2023-03-11T09:06:18.706Z,1.48
2023-03-11T09:08:47.466Z,1.34
2023-03-11T09:11:17.703Z,1.34
2023-03-11T09:13:45.761Z,1.37
2023-03-11T09:16:14.689Z,1.43
2023-03-11T09:18:42.474Z,1.46
2023-03-11T09:21:12.097Z,1.44
2023-03-11T09:23:42.868Z,1.37
2023-03-11T09:26:11.804Z,1.65
2023-03-11T09:28:39.810Z,1.89
2023-03-11T09:31:07.544Z,2.00
2023-03-11T09:33:38.509Z,1.92
2023-03-11T09:36:07.171Z,1.92
2023-03-11T09:38:36.220Z,1.91
2023-03-11T09:41:09.395Z,1.97
2023-03-11T09:43:49.312Z,2.04
2023-03-11T09:46:36.504Z,2.04
2023-03-11T09:49:10.818Z,1.91
2023-03-11T09:51:43.694Z,1.92
2023-03-11T09:54:14.592Z,1.99
2023-03-11T09:56:44.885Z,1.89
2023-03-11T09:59:20.630Z,1.77
2023-03-11T10:01:51.011Z,1.70
2023-03-11T10:04:23.384Z,1.72
2023-03-11T10:06:51.667Z,1.76
2023-03-11T10:09:39.281Z,1.83
2023-03-11T10:12:19.853Z,2.00
2023-03-11T10:14:56.740Z,2.15
2023-03-11T10:17:40.750Z,2.14
2023-03-11T10:20:14.979Z,2.33
2023-03-11T10:22:51.418Z,2.39
2023-03-11T10:25:23.761Z,2.41
2023-03-11T10:27:56.076Z,2.42
2023-03-11T10:30:29.900Z,2.46
2023-03-11T10:33:02.429Z,2.39
2023-03-11T10:35:37.675Z,2.61
2023-03-11T10:38:12.770Z,2.78
2023-03-11T10:40:44.684Z,2.67
2023-03-11T10:43:15.448Z,2.51
2023-03-11T10:45:45.762Z,2.38
2023-03-11T10:48:16.020Z,2.35
2023-03-11T10:50:50.823Z,2.23
2023-03-11T10:53:20.875Z,2.22
2023-03-11T10:55:51.567Z,2.19
2023-03-11T10:58:22.013Z,2.12
2023-03-11T11:01:00.608Z,2.07
2023-03-11T11:03:29.456Z,2.04
2023-03-11T11:06:04.202Z,1.99
2023-03-11T11:08:32.837Z,2.05
2023-03-11T11:11:03.654Z,1.94
2023-03-11T11:13:34.340Z,1.92
2023-03-11T11:16:04.250Z,1.95
2023-03-11T11:18:34.762Z,1.85
2023-03-11T11:21:04.267Z,1.90
2023-03-11T11:23:42.317Z,1.92
2023-03-11T11:26:20.296Z,2.10
2023-03-11T11:28:48.050Z,2.17
2023-03-11T11:31:25.458Z,2.33
2023-03-11T11:33:55.531Z,2.45
2023-03-11T11:36:28.681Z,2.57
2023-03-11T11:38:57.070Z,2.55
2023-03-11T11:41:28.495Z,2.39
2023-03-11T11:43:58.381Z,2.42
2023-03-11T11:46:31.852Z,2.44
2023-03-11T11:49:08.086Z,2.42
2023-03-11T11:51:41.277Z,2.31
2023-03-11T11:54:18.106Z,2.36
2023-03-11T11:56:47.690Z,2.36
2023-03-11T11:59:18.762Z,2.59
2023-03-11T12:01:59.234Z,2.58
2023-03-11T12:04:41.554Z,2.59
2023-03-11T12:07:22.941Z,2.53
2023-03-11T12:09:57.544Z,2.71
2023-03-11T12:12:33.739Z,2.66
2023-03-11T12:15:08.310Z,2.86
2023-03-11T12:17:39.839Z,3.21
2023-03-11T12:20:12.805Z,3.41
2023-03-11T12:22:54.549Z,3.45
2023-03-11T12:25:32.797Z,3.47
2023-03-11T12:28:10.702Z,3.33
2023-03-11T12:30:43.858Z,3.35
2023-03-11T12:33:18.359Z,3.33
2023-03-11T12:35:53.772Z,3.18
2023-03-11T12:38:29.723Z,3.17
2023-03-11T12:41:03.567Z,3.17
2023-03-11T12:44:01.482Z,3.04
2023-03-11T12:47:11.519Z,2.92
2023-03-11T12:49:40.946Z,2.79
2023-03-11T12:52:26.432Z,2.82
2023-03-11T12:55:38.609Z,2.63
2023-03-11T12:58:38.314Z,2.53
2023-03-11T13:01:44.389Z,2.40
2023-03-11T13:04:26.438Z,2.53
2023-03-11T13:07:15.279Z,2.63
2023-03-11T13:09:43.045Z,2.72
2023-03-11T13:12:40.122Z,2.79
2023-03-11T13:15:36.724Z,2.82
2023-03-11T13:18:17.740Z,2.96
2023-03-11T13:20:49.642Z,3.05
2023-03-11T13:23:29.405Z,3.10
2023-03-11T13:26:31.336Z,3.37
2023-03-11T13:29:30.190Z,3.42
2023-03-11T13:32:12.713Z,3.39
2023-03-11T13:34:49.240Z,3.25
2023-03-11T13:37:27.874Z,3.28
2023-03-11T13:40:07.125Z,3.18
2023-03-11T13:42:38.552Z,3.09
2023-03-11T13:45:13.752Z,2.88
2023-03-11T13:47:47.015Z,2.79
2023-03-11T13:50:24.057Z,2.58
2023-03-11T13:52:54.323Z,2.52
2023-03-11T13:55:24.207Z,2.50
2023-03-11T13:57:53.588Z,2.49
2023-03-11T14:00:24.397Z,2.54
2023-03-11T14:02:55.207Z,2.39
2023-03-11T14:05:27.816Z,2.37
2023-03-11T14:07:55.544Z,2.39
2023-03-11T14:10:27.272Z,2.32
2023-03-11T14:13:07.071Z,2.26
2023-03-11T14:15:44.809Z,2.17
2023-03-11T14:18:33.893Z,2.18
2023-03-11T14:21:04.745Z,2.21
2023-03-11T14:23:36.281Z,2.18
2023-03-11T14:26:08.396Z,2.23
2023-03-11T14:28:41.228Z,2.37
2023-03-11T14:31:09.230Z,2.55
2023-03-11T14:33:36.869Z,2.79
2023-03-11T14:36:15.679Z,2.89
2023-03-11T14:38:44.634Z,2.91
2023-03-11T14:41:16.499Z,2.84
2023-03-11T14:43:49.243Z,3.06
2023-03-11T14:46:21.251Z,3.17
2023-03-11T14:48:49.312Z,3.42
2023-03-11T14:51:23.603Z,3.66
2023-03-11T14:53:57.510Z,3.68
2023-03-11T14:56:27.549Z,3.80
2023-03-11T14:59:07.704Z,3.94
2023-03-11T15:01:40.560Z,3.92
2023-03-11T15:04:12.344Z,3.90
2023-03-11T15:06:43.883Z,3.82
2023-03-11T15:09:14.252Z,3.85
2023-03-11T15:11:47.041Z,4.00
2023-03-11T15:14:24.190Z,3.90
2023-03-11T15:16:53.220Z,3.77
2023-03-11T15:19:32.302Z,3.93
2023-03-11T15:22:06.317Z,3.92
2023-03-11T15:24:34.993Z,3.83
2023-03-11T15:27:05.470Z,3.79
2023-03-11T15:29:33.695Z,3.88
2023-03-11T15:32:01.976Z,3.84
2023-03-11T15:34:31.902Z,3.79
2023-03-11T15:37:07.831Z,3.79
2023-03-11T15:39:44.943Z,3.78
2023-03-11T15:42:24.413Z,3.82
2023-03-11T15:45:12.031Z,3.82
2023-03-11T15:47:40.576Z,3.71
2023-03-11T15:50:24.035Z,3.67
2023-03-11T15:52:55.749Z,3.73
2023-03-11T15:55:24.064Z,3.69
2023-03-11T15:57:54.919Z,3.67
2023-03-11T16:00:24.895Z,3.62
2023-03-11T16:02:54.462Z,3.64
2023-03-11T16:05:23.637Z,3.60
2023-03-11T16:07:51.714Z,3.45
2023-03-11T16:10:24.140Z,3.23
2023-03-11T16:12:52.087Z,3.11
2023-03-11T16:15:24.786Z,2.93
2023-03-11T16:17:53.346Z,2.94
2023-03-11T16:20:22.477Z,2.81
2023-03-11T16:22:53.623Z,2.86
2023-03-11T16:25:26.315Z,2.83
2023-03-11T16:27:56.449Z,2.79
2023-03-11T16:30:26.553Z,2.72
2023-03-11T16:32:54.336Z,2.77
2023-03-11T16:35:22.386Z,2.66
2023-03-11T16:37:50.563Z,2.61
2023-03-11T16:40:21.725Z,2.52
2023-03-11T16:42:50.800Z,2.44
2023-03-11T16:45:19.249Z,2.39
2023-03-11T16:47:47.048Z,2.44
2023-03-11T16:50:14.796Z,2.31
2023-03-11T16:52:42.545Z,2.34
2023-03-11T16:55:11.141Z,2.29
2023-03-11T16:57:39.417Z,2.17
2023-03-11T17:00:11.546Z,2.17
2023-03-11T17:02:39.556Z,2.14
2023-03-11T17:05:09.567Z,2.08
2023-03-11T17:07:39.617Z,2.05
2023-03-11T17:10:08.316Z,2.07
2023-03-11T17:12:36.745Z,1.99
2023-03-11T17:15:06.726Z,2.01
2023-03-11T17:17:35.768Z,1.97
2023-03-11T17:20:04.065Z,2.00
2023-03-11T17:22:32.413Z,1.97
2023-03-11T17:25:00.101Z,1.88
2023-03-11T17:27:32.032Z,1.85
2023-03-11T17:29:59.907Z,1.85
2023-03-11T17:32:27.611Z,1.75
2023-03-11T17:34:56.640Z,1.79
2023-03-11T17:37:24.359Z,1.77
2023-03-11T17:39:52.190Z,1.72
2023-03-11T17:42:19.914Z,1.71
2023-03-11T17:44:51.784Z,1.71
2023-03-11T17:47:21.240Z,1.81
2023-03-11T17:49:49.734Z,1.74
2023-03-11T17:52:18.879Z,1.66
2023-03-11T17:54:46.819Z,1.65
2023-03-11T17:57:14.437Z,1.68
2023-03-11T17:59:42.089Z,1.65
2023-03-11T18:02:14.177Z,1.71
2023-03-11T18:04:45.874Z,1.64
2023-03-11T18:07:13.970Z,1.58
2023-03-11T18:09:42.974Z,1.54
2023-03-11T18:12:10.773Z,1.52
2023-03-11T18:14:38.490Z,1.49
2023-03-11T18:17:06.309Z,1.42
2023-03-11T18:19:34.385Z,1.53
2023-03-11T18:22:02.193Z,1.53
2023-03-11T18:24:29.989Z,1.41
2023-03-11T18:26:59.027Z,1.45
2023-03-11T18:29:26.762Z,1.38
2023-03-11T18:31:54.455Z,1.42
2023-03-11T18:34:23.137Z,1.44
2023-03-11T18:36:50.789Z,1.36
2023-03-11T18:39:18.443Z,1.38
2023-03-11T18:41:46.096Z,1.28
2023-03-11T18:44:15.346Z,1.35
2023-03-11T18:46:43.408Z,1.35
2023-03-11T18:49:12.864Z,1.36
2023-03-11T18:51:41.021Z,1.33
2023-03-11T18:54:08.987Z,1.23
2023-03-11T18:56:37.236Z,1.21
2023-03-11T18:59:05.124Z,1.18
2023-03-11T19:01:34.489Z,1.13
2023-03-11T19:04:02.209Z,1.25
2023-03-11T19:06:30.459Z,1.13
2023-03-11T19:08:58.674Z,1.08
2023-03-11T19:11:26.971Z,1.09
2023-03-11T19:13:54.958Z,1.02
2023-03-11T19:16:24.447Z,1.03
2023-03-11T19:18:55.138Z,0.95
2023-03-11T19:21:23.826Z,0.93
2023-03-11T19:23:54.909Z,0.97
2023-03-11T19:26:33.689Z,1.04
2023-03-11T19:29:09.836Z,0.92
2023-03-11T19:31:37.535Z,0.90
2023-03-11T19:34:06.591Z,0.92
2023-03-11T19:36:34.762Z,0.93
2023-03-11T19:39:03.139Z,0.91
2023-03-11T19:41:30.815Z,0.92
2023-03-11T19:43:58.513Z,0.96
2023-03-11T19:46:26.415Z,0.88
2023-03-11T19:48:56.515Z,0.94
2023-03-11T19:51:30.505Z,0.96
2023-03-11T19:54:00.717Z,0.94
2023-03-11T19:56:28.505Z,0.89
2023-03-11T19:58:57.694Z,0.89
2023-03-11T20:01:28.267Z,0.97
2023-03-11T20:03:55.958Z,0.83
2023-03-11T20:06:25.099Z,0.89
2023-03-11T20:08:52.833Z,0.90
2023-03-11T20:11:20.571Z,0.89
2023-03-11T20:13:48.559Z,0.88
2023-03-11T20:16:19.290Z,0.87
2023-03-11T20:18:49.818Z,0.77
2023-03-11T20:21:17.332Z,0.85
2023-03-11T20:23:46.458Z,0.89
2023-03-11T20:26:15.269Z,0.82
2023-03-11T20:28:43.042Z,0.85
2023-03-11T20:31:13.959Z,0.83
2023-03-11T20:33:41.760Z,0.91
2023-03-11T20:36:11.607Z,0.88
2023-03-11T20:38:39.397Z,0.85
2023-03-11T20:41:09.714Z,0.92
2023-03-11T20:43:37.838Z,0.87
2023-03-11T20:46:06.969Z,0.92
2023-03-11T20:48:35.331Z,0.88
2023-03-11T20:51:03.606Z,0.83
2023-03-11T20:53:31.641Z,0.83
2023-03-11T20:55:59.592Z,0.85
2023-03-11T20:58:28.701Z,0.83
2023-03-11T21:00:56.552Z,0.92
2023-03-11T21:03:24.375Z,0.97
2023-03-11T21:05:52.076Z,0.87
2023-03-11T21:08:19.882Z,0.86
2023-03-11T21:10:47.568Z,0.85
2023-03-11T21:13:15.217Z,0.87
2023-03-11T21:15:44.711Z,0.93
2023-03-11T21:18:12.536Z,0.84
2023-03-11T21:20:40.325Z,0.84
2023-03-11T21:23:09.577Z,0.84
2023-03-11T21:25:39.157Z,0.93
2023-03-11T21:28:06.860Z,0.95
2023-03-11T21:30:34.574Z,0.87
2023-03-11T21:33:03.882Z,0.92
2023-03-11T21:35:31.998Z,0.98
2023-03-11T21:37:59.780Z,0.84
2023-03-11T21:40:27.699Z,0.76
2023-03-11T21:42:55.504Z,0.80
2023-03-11T21:45:23.188Z,0.98
2023-03-11T21:47:50.930Z,0.93
2023-03-11T21:50:20.293Z,0.97
2023-03-11T21:52:47.999Z,0.85
2023-03-11T21:55:15.685Z,0.73
2023-03-11T21:57:43.379Z,0.88
2023-03-11T22:00:12.525Z,0.87
2023-03-11T22:02:40.170Z,0.82
2023-03-11T22:05:08.529Z,0.85
2023-03-11T22:07:37.875Z,0.75
2023-03-11T22:10:06.291Z,0.76
2023-03-11T22:12:34.120Z,0.82
2023-03-11T22:15:01.835Z,0.72
2023-03-11T22:17:29.686Z,0.73
2023-03-11T22:19:57.423Z,0.82
2023-03-11T22:22:25.175Z,0.76
2023-03-11T22:24:54.180Z,0.84
2023-03-11T22:27:21.816Z,0.87
2023-03-11T22:29:49.514Z,0.82
2023-03-11T22:32:17.268Z,0.81
2023-03-11T22:34:45.219Z,0.83
2023-03-11T22:37:12.922Z,0.78
2023-03-11T22:39:40.549Z,0.87
2023-03-11T22:42:09.664Z,0.85
2023-03-11T22:44:37.313Z,0.73
2023-03-11T22:47:05.110Z,0.71
2023-03-11T22:49:32.780Z,0.69
2023-03-11T22:52:00.452Z,0.78
2023-03-11T22:54:28.214Z,0.75
2023-03-11T22:56:55.949Z,0.83
2023-03-11T22:59:26.997Z,0.80
2023-03-11T23:01:54.703Z,0.74
2023-03-11T23:04:22.402Z,0.73
2023-03-11T23:06:50.141Z,0.71
2023-03-11T23:09:17.844Z,0.65
2023-03-11T23:11:45.487Z,0.64
2023-03-11T23:14:13.158Z,0.65
2023-03-11T23:16:42.308Z,0.71
2023-03-11T23:19:10.419Z,0.75
2023-03-11T23:21:38.197Z,0.78
2023-03-11T23:24:08.730Z,0.69
2023-03-11T23:26:37.341Z,0.77
2023-03-11T23:29:05.725Z,0.71
2023-03-11T23:31:33.433Z,0.70
2023-03-11T23:34:02.531Z,0.64
2023-03-11T23:36:32.137Z,0.63
2023-03-11T23:38:59.777Z,0.65
2023-03-11T23:41:27.866Z,0.66
2023-03-11T23:43:55.564Z,0.65
2023-03-11T23:46:23.262Z,0.55
2023-03-11T23:48:51.061Z,0.67
2023-03-11T23:51:19.998Z,0.66
2023-03-11T23:53:47.675Z,0.60
2023-03-11T23:56:17.935Z,0.63
2023-03-11T23:58:46.890Z,0.65
